Whitneyville, Pennsylvania
Current Conditions -  °F | °C
As of 12:15 PM on Friday 31 Oct 2014 (Local Time) from KN38 Reporting Station
Overcast Overcast  
Wind Chill: 37°   Ceiling: 4400
Heat Index: 41°   Visibility: 10mi
Dew Point: 34°   Wind: 6mph
Humidity: 76%   Direction: 170°S
Pressure: 29.95"   Gusts: NA
Location:  41.8345°N, 77.0538°W
Report Text: KN38 311615Z AUTO 17005KT 10SM OVC044 05/01 A2995 RMK AO2
Loading
Personal Weather Stations






























Interactive Weather Map
Tropical Storm Tracking
New forecast layout! Learn more

10-Day Weather Forecast

Advertisements
Track Severe Weather on mobile